sensor_id;sensor_type;location;lat;lon;timestamp;P1;durP1;ratioP1;P2;durP2;ratioP2
41677;SDS011;27364;49.026;8.712;2022-10-31T00:03:50;11.27;;;5.57;;
41677;SDS011;27364;49.026;8.712;2022-10-31T00:06:16;12.05;;;5.57;;
41677;SDS011;27364;49.026;8.712;2022-10-31T00:08:47;13.18;;;6.10;;
41677;SDS011;27364;49.026;8.712;2022-10-31T00:11:16;12.57;;;5.60;;
41677;SDS011;27364;49.026;8.712;2022-10-31T00:13:42;10.27;;;6.00;;
41677;SDS011;27364;49.026;8.712;2022-10-31T00:16:15;10.10;;;5.45;;
41677;SDS011;27364;49.026;8.712;2022-10-31T00:18:41;13.80;;;5.88;;
41677;SDS011;27364;49.026;8.712;2022-10-31T00:21:07;9.40;;;5.60;;
41677;SDS011;27364;49.026;8.712;2022-10-31T00:23:32;13.25;;;5.60;;
41677;SDS011;27364;49.026;8.712;2022-10-31T00:26:02;9.52;;;5.72;;
41677;SDS011;27364;49.026;8.712;2022-10-31T00:28:29;13.10;;;5.80;;
41677;SDS011;27364;49.026;8.712;2022-10-31T00:30:58;13.93;;;5.50;;
41677;SDS011;27364;49.026;8.712;2022-10-31T00:33:25;13.05;;;5.78;;
41677;SDS011;27364;49.026;8.712;2022-10-31T00:35:50;9.75;;;5.65;;
41677;SDS011;27364;49.026;8.712;2022-10-31T00:38:19;12.57;;;5.93;;
41677;SDS011;27364;49.026;8.712;2022-10-31T00:40:44;12.70;;;5.55;;
41677;SDS011;27364;49.026;8.712;2022-10-31T00:43:10;11.75;;;5.65;;
41677;SDS011;27364;49.026;8.712;2022-10-31T00:45:38;12.32;;;5.82;;
41677;SDS011;27364;49.026;8.712;2022-10-31T00:48:03;13.48;;;6.05;;
41677;SDS011;27364;49.026;8.712;2022-10-31T00:50:29;12.02;;;5.93;;
41677;SDS011;27364;49.026;8.712;2022-10-31T00:52:55;10.57;;;5.97;;
41677;SDS011;27364;49.026;8.712;2022-10-31T00:55:21;9.52;;;5.60;;
41677;SDS011;27364;49.026;8.712;2022-10-31T00:57:49;10.82;;;5.78;;
41677;SDS011;27364;49.026;8.712;2022-10-31T01:00:14;12.50;;;5.78;;
41677;SDS011;27364;49.026;8.712;2022-10-31T01:02:42;9.57;;;5.60;;
41677;SDS011;27364;49.026;8.712;2022-10-31T01:05:07;11.75;;;5.95;;
41677;SDS011;27364;49.026;8.712;2022-10-31T01:07:37;10.25;;;5.72;;
41677;SDS011;27364;49.026;8.712;2022-10-31T01:10:04;10.82;;;5.65;;
41677;SDS011;27364;49.026;8.712;2022-10-31T01:12:35;8.48;;;5.28;;
41677;SDS011;27364;49.026;8.712;2022-10-31T01:15:05;10.68;;;5.30;;
41677;SDS011;27364;49.026;8.712;2022-10-31T01:17:32;9.25;;;5.13;;
41677;SDS011;27364;49.026;8.712;2022-10-31T01:19:57;12.32;;;5.22;;
41677;SDS011;27364;49.026;8.712;2022-10-31T01:22:23;12.23;;;5.22;;
41677;SDS011;27364;49.026;8.712;2022-10-31T01:24:48;12.82;;;5.70;;
41677;SDS011;27364;49.026;8.712;2022-10-31T01:27:14;10.45;;;5.18;;
41677;SDS011;27364;49.026;8.712;2022-10-31T01:29:39;11.63;;;5.40;;
41677;SDS011;27364;49.026;8.712;2022-10-31T01:32:05;10.27;;;5.30;;
41677;SDS011;27364;49.026;8.712;2022-10-31T01:34:30;12.65;;;5.30;;
41677;SDS011;27364;49.026;8.712;2022-10-31T01:36:56;13.45;;;5.60;;
41677;SDS011;27364;49.026;8.712;2022-10-31T01:39:22;13.23;;;6.35;;
41677;SDS011;27364;49.026;8.712;2022-10-31T01:41:49;10.32;;;5.35;;
41677;SDS011;27364;49.026;8.712;2022-10-31T01:46:54;12.27;;;5.20;;
41677;SDS011;27364;49.026;8.712;2022-10-31T01:49:24;8.40;;;4.65;;
41677;SDS011;27364;49.026;8.712;2022-10-31T01:52:02;8.20;;;4.20;;
41677;SDS011;27364;49.026;8.712;2022-10-31T01:54:33;8.32;;;4.82;;
41677;SDS011;27364;49.026;8.712;2022-10-31T01:57:04;9.00;;;4.40;;
41677;SDS011;27364;49.026;8.712;2022-10-31T01:59:32;9.90;;;4.63;;
41677;SDS011;27364;49.026;8.712;2022-10-31T02:02:01;12.82;;;4.60;;
41677;SDS011;27364;49.026;8.712;2022-10-31T02:04:26;9.27;;;5.18;;
41677;SDS011;27364;49.026;8.712;2022-10-31T02:06:55;8.73;;;4.65;;
41677;SDS011;27364;49.026;8.712;2022-10-31T02:09:27;8.32;;;4.97;;
41677;SDS011;27364;49.026;8.712;2022-10-31T02:11:56;7.93;;;5.07;;
41677;SDS011;27364;49.026;8.712;2022-10-31T02:14:24;10.85;;;5.07;;
41677;SDS011;27364;49.026;8.712;2022-10-31T02:16:53;8.68;;;4.45;;
41677;SDS011;27364;49.026;8.712;2022-10-31T02:19:22;12.43;;;5.30;;
41677;SDS011;27364;49.026;8.712;2022-10-31T02:22:12;8.77;;;4.93;;
41677;SDS011;27364;49.026;8.712;2022-10-31T02:30:23;7.10;;;4.47;;
41677;SDS011;27364;49.026;8.712;2022-10-31T02:35:40;13.65;;;5.28;;
41677;SDS011;27364;49.026;8.712;2022-10-31T02:44:02;7.65;;;5.30;;
41677;SDS011;27364;49.026;8.712;2022-10-31T02:46:50;8.60;;;5.30;;
41677;SDS011;27364;49.026;8.712;2022-10-31T02:52:13;10.63;;;5.38;;
41677;SDS011;27364;49.026;8.712;2022-10-31T02:54:50;10.77;;;5.38;;
41677;SDS011;27364;49.026;8.712;2022-10-31T02:57:17;11.38;;;5.47;;
41677;SDS011;27364;49.026;8.712;2022-10-31T02:59:51;9.30;;;5.18;;
41677;SDS011;27364;49.026;8.712;2022-10-31T03:02:38;11.40;;;5.80;;
41677;SDS011;27364;49.026;8.712;2022-10-31T03:15:43;13.10;;;5.55;;
41677;SDS011;27364;49.026;8.712;2022-10-31T03:18:27;13.48;;;5.50;;
41677;SDS011;27364;49.026;8.712;2022-10-31T03:23:43;10.07;;;5.68;;
41677;SDS011;27364;49.026;8.712;2022-10-31T03:26:09;9.30;;;5.82;;
41677;SDS011;27364;49.026;8.712;2022-10-31T03:28:43;10.15;;;4.80;;
41677;SDS011;27364;49.026;8.712;2022-10-31T03:31:18;11.45;;;5.20;;
41677;SDS011;27364;49.026;8.712;2022-10-31T03:33:47;12.23;;;5.78;;
41677;SDS011;27364;49.026;8.712;2022-10-31T03:36:14;10.80;;;5.00;;
41677;SDS011;27364;49.026;8.712;2022-10-31T03:38:42;13.50;;;5.35;;
41677;SDS011;27364;49.026;8.712;2022-10-31T03:41:11;8.75;;;4.68;;
41677;SDS011;27364;49.026;8.712;2022-10-31T03:43:48;7.95;;;5.13;;
41677;SDS011;27364;49.026;8.712;2022-10-31T03:46:22;9.35;;;5.57;;
41677;SDS011;27364;49.026;8.712;2022-10-31T03:48:48;9.32;;;5.47;;
41677;SDS011;27364;49.026;8.712;2022-10-31T03:51:16;9.25;;;5.63;;
41677;SDS011;27364;49.026;8.712;2022-10-31T03:53:55;8.20;;;4.60;;
41677;SDS011;27364;49.026;8.712;2022-10-31T03:59:07;10.48;;;6.13;;
41677;SDS011;27364;49.026;8.712;2022-10-31T04:01:39;11.23;;;6.82;;
41677;SDS011;27364;49.026;8.712;2022-10-31T04:04:12;10.60;;;6.05;;
41677;SDS011;27364;49.026;8.712;2022-10-31T04:06:39;9.40;;;5.40;;
41677;SDS011;27364;49.026;8.712;2022-10-31T04:09:08;11.75;;;5.65;;
41677;SDS011;27364;49.026;8.712;2022-10-31T04:11:36;8.85;;;5.38;;
41677;SDS011;27364;49.026;8.712;2022-10-31T04:14:05;12.35;;;6.82;;
41677;SDS011;27364;49.026;8.712;2022-10-31T04:16:31;11.80;;;5.80;;
41677;SDS011;27364;49.026;8.712;2022-10-31T04:18:57;7.53;;;4.15;;
41677;SDS011;27364;49.026;8.712;2022-10-31T04:21:29;8.63;;;4.47;;
41677;SDS011;27364;49.026;8.712;2022-10-31T04:23:55;10.13;;;5.53;;
41677;SDS011;27364;49.026;8.712;2022-10-31T04:26:22;8.82;;;5.47;;
41677;SDS011;27364;49.026;8.712;2022-10-31T04:28:47;8.18;;;5.18;;
41677;SDS011;27364;49.026;8.712;2022-10-31T04:31:13;12.27;;;6.22;;
41677;SDS011;27364;49.026;8.712;2022-10-31T04:33:39;12.75;;;5.47;;
41677;SDS011;27364;49.026;8.712;2022-10-31T04:36:05;10.25;;;5.25;;
41677;SDS011;27364;49.026;8.712;2022-10-31T04:38:30;10.40;;;6.57;;
41677;SDS011;27364;49.026;8.712;2022-10-31T04:40:56;12.55;;;7.25;;
41677;SDS011;27364;49.026;8.712;2022-10-31T04:43:22;11.23;;;5.07;;
41677;SDS011;27364;49.026;8.712;2022-10-31T04:45:47;10.15;;;4.28;;
41677;SDS011;27364;49.026;8.712;2022-10-31T04:48:13;7.53;;;4.30;;
41677;SDS011;27364;49.026;8.712;2022-10-31T04:50:40;9.43;;;5.15;;
41677;SDS011;27364;49.026;8.712;2022-10-31T04:53:05;11.90;;;5.95;;
41677;SDS011;27364;49.026;8.712;2022-10-31T04:55:31;11.30;;;5.00;;
41677;SDS011;27364;49.026;8.712;2022-10-31T04:57:56;11.43;;;5.72;;
41677;SDS011;27364;49.026;8.712;2022-10-31T05:00:22;8.82;;;5.75;;
41677;SDS011;27364;49.026;8.712;2022-10-31T05:02:50;10.38;;;5.88;;
41677;SDS011;27364;49.026;8.712;2022-10-31T05:05:19;9.15;;;5.47;;
41677;SDS011;27364;49.026;8.712;2022-10-31T05:07:47;7.40;;;4.50;;
41677;SDS011;27364;49.026;8.712;2022-10-31T05:10:14;6.05;;;4.10;;
41677;SDS011;27364;49.026;8.712;2022-10-31T05:12:51;8.63;;;4.20;;
41677;SDS011;27364;49.026;8.712;2022-10-31T05:15:20;11.27;;;4.78;;
41677;SDS011;27364;49.026;8.712;2022-10-31T05:17:46;10.05;;;5.13;;
41677;SDS011;27364;49.026;8.712;2022-10-31T05:20:13;10.48;;;5.00;;
41677;SDS011;27364;49.026;8.712;2022-10-31T05:22:46;13.25;;;5.55;;
41677;SDS011;27364;49.026;8.712;2022-10-31T05:25:16;10.65;;;5.47;;
41677;SDS011;27364;49.026;8.712;2022-10-31T05:27:44;11.52;;;6.00;;
41677;SDS011;27364;49.026;8.712;2022-10-31T05:30:12;9.73;;;6.15;;
41677;SDS011;27364;49.026;8.712;2022-10-31T05:32:40;10.02;;;5.47;;
41677;SDS011;27364;49.026;8.712;2022-10-31T05:35:07;7.38;;;5.13;;
41677;SDS011;27364;49.026;8.712;2022-10-31T05:37:37;10.30;;;5.93;;
41677;SDS011;27364;49.026;8.712;2022-10-31T05:40:03;10.05;;;5.32;;
41677;SDS011;27364;49.026;8.712;2022-10-31T05:42:30;8.80;;;5.10;;
41677;SDS011;27364;49.026;8.712;2022-10-31T05:44:56;10.77;;;5.22;;
41677;SDS011;27364;49.026;8.712;2022-10-31T05:47:22;7.88;;;5.22;;
41677;SDS011;27364;49.026;8.712;2022-10-31T05:49:47;8.68;;;5.18;;
41677;SDS011;27364;49.026;8.712;2022-10-31T05:52:13;11.40;;;4.72;;
41677;SDS011;27364;49.026;8.712;2022-10-31T05:54:39;8.52;;;4.80;;
41677;SDS011;27364;49.026;8.712;2022-10-31T05:57:05;8.35;;;4.43;;
41677;SDS011;27364;49.026;8.712;2022-10-31T05:59:31;12.60;;;4.88;;
41677;SDS011;27364;49.026;8.712;2022-10-31T06:01:57;12.45;;;5.13;;
41677;SDS011;27364;49.026;8.712;2022-10-31T06:04:22;8.73;;;5.13;;
41677;SDS011;27364;49.026;8.712;2022-10-31T06:06:53;10.30;;;5.68;;
41677;SDS011;27364;49.026;8.712;2022-10-31T06:09:18;10.23;;;5.88;;
41677;SDS011;27364;49.026;8.712;2022-10-31T06:11:44;7.40;;;5.32;;
41677;SDS011;27364;49.026;8.712;2022-10-31T06:14:10;10.98;;;5.97;;
41677;SDS011;27364;49.026;8.712;2022-10-31T06:16:37;8.80;;;5.88;;
41677;SDS011;27364;49.026;8.712;2022-10-31T06:19:03;10.40;;;4.88;;
41677;SDS011;27364;49.026;8.712;2022-10-31T06:21:28;9.02;;;4.93;;
41677;SDS011;27364;49.026;8.712;2022-10-31T06:23:54;8.88;;;4.70;;
41677;SDS011;27364;49.026;8.712;2022-10-31T06:26:19;9.48;;;4.70;;
41677;SDS011;27364;49.026;8.712;2022-10-31T06:28:45;13.40;;;5.15;;
41677;SDS011;27364;49.026;8.712;2022-10-31T06:31:10;8.68;;;4.90;;
41677;SDS011;27364;49.026;8.712;2022-10-31T06:33:36;10.73;;;5.25;;
41677;SDS011;27364;49.026;8.712;2022-10-31T06:36:02;9.93;;;5.10;;
41677;SDS011;27364;49.026;8.712;2022-10-31T06:38:28;15.15;;;4.88;;
41677;SDS011;27364;49.026;8.712;2022-10-31T06:40:54;7.90;;;4.47;;
41677;SDS011;27364;49.026;8.712;2022-10-31T06:43:20;14.40;;;5.13;;
41677;SDS011;27364;49.026;8.712;2022-10-31T06:45:46;10.93;;;5.20;;
41677;SDS011;27364;49.026;8.712;2022-10-31T06:48:13;11.88;;;5.22;;
41677;SDS011;27364;49.026;8.712;2022-10-31T06:50:38;10.13;;;5.78;;
41677;SDS011;27364;49.026;8.712;2022-10-31T06:53:04;10.70;;;5.80;;
41677;SDS011;27364;49.026;8.712;2022-10-31T06:55:37;10.55;;;6.13;;
41677;SDS011;27364;49.026;8.712;2022-10-31T06:58:02;8.45;;;5.78;;
41677;SDS011;27364;49.026;8.712;2022-10-31T07:00:29;10.13;;;6.35;;
41677;SDS011;27364;49.026;8.712;2022-10-31T07:02:55;11.75;;;7.20;;
41677;SDS011;27364;49.026;8.712;2022-10-31T07:05:26;10.65;;;6.05;;
41677;SDS011;27364;49.026;8.712;2022-10-31T07:07:59;11.10;;;5.97;;
41677;SDS011;27364;49.026;8.712;2022-10-31T07:10:28;9.07;;;5.28;;
41677;SDS011;27364;49.026;8.712;2022-10-31T07:13:02;8.60;;;5.95;;
41677;SDS011;27364;49.026;8.712;2022-10-31T07:15:33;10.98;;;6.10;;
41677;SDS011;27364;49.026;8.712;2022-10-31T07:18:02;9.88;;;7.15;;
41677;SDS011;27364;49.026;8.712;2022-10-31T07:20:29;10.88;;;7.13;;
41677;SDS011;27364;49.026;8.712;2022-10-31T07:22:55;12.43;;;7.68;;
41677;SDS011;27364;49.026;8.712;2022-10-31T07:25:21;14.77;;;7.78;;
41677;SDS011;27364;49.026;8.712;2022-10-31T07:27:54;12.18;;;7.28;;
41677;SDS011;27364;49.026;8.712;2022-10-31T07:30:22;13.27;;;7.70;;
41677;SDS011;27364;49.026;8.712;2022-10-31T07:32:50;11.98;;;7.13;;
41677;SDS011;27364;49.026;8.712;2022-10-31T07:35:17;10.80;;;7.55;;
41677;SDS011;27364;49.026;8.712;2022-10-31T07:37:48;14.20;;;7.50;;
41677;SDS011;27364;49.026;8.712;2022-10-31T07:40:17;20.20;;;7.45;;
41677;SDS011;27364;49.026;8.712;2022-10-31T07:42:49;17.38;;;7.00;;
41677;SDS011;27364;49.026;8.712;2022-10-31T07:45:19;35.22;;;9.40;;
41677;SDS011;27364;49.026;8.712;2022-10-31T07:47:50;11.85;;;7.03;;
41677;SDS011;27364;49.026;8.712;2022-10-31T07:50:19;11.32;;;7.43;;
41677;SDS011;27364;49.026;8.712;2022-10-31T07:52:47;16.27;;;6.72;;
41677;SDS011;27364;49.026;8.712;2022-10-31T07:55:13;12.52;;;6.57;;
41677;SDS011;27364;49.026;8.712;2022-10-31T07:57:42;12.40;;;6.40;;
41677;SDS011;27364;49.026;8.712;2022-10-31T08:00:08;12.18;;;6.63;;
41677;SDS011;27364;49.026;8.712;2022-10-31T08:02:35;13.20;;;6.97;;
41677;SDS011;27364;49.026;8.712;2022-10-31T08:05:00;10.80;;;6.20;;
41677;SDS011;27364;49.026;8.712;2022-10-31T08:07:29;10.30;;;6.78;;
41677;SDS011;27364;49.026;8.712;2022-10-31T08:10:00;12.35;;;6.82;;
41677;SDS011;27364;49.026;8.712;2022-10-31T08:12:26;10.52;;;6.50;;
41677;SDS011;27364;49.026;8.712;2022-10-31T08:14:52;12.05;;;7.10;;
41677;SDS011;27364;49.026;8.712;2022-10-31T08:17:17;14.30;;;7.47;;
41677;SDS011;27364;49.026;8.712;2022-10-31T08:19:43;14.57;;;7.35;;
41677;SDS011;27364;49.026;8.712;2022-10-31T08:22:09;18.50;;;7.53;;
41677;SDS011;27364;49.026;8.712;2022-10-31T08:24:35;15.18;;;7.18;;
41677;SDS011;27364;49.026;8.712;2022-10-31T08:27:01;11.95;;;7.47;;
41677;SDS011;27364;49.026;8.712;2022-10-31T08:29:27;15.43;;;7.45;;
41677;SDS011;27364;49.026;8.712;2022-10-31T08:31:52;11.60;;;6.78;;
41677;SDS011;27364;49.026;8.712;2022-10-31T08:34:18;12.05;;;6.88;;
41677;SDS011;27364;49.026;8.712;2022-10-31T08:36:45;13.15;;;7.57;;
41677;SDS011;27364;49.026;8.712;2022-10-31T08:39:11;14.13;;;7.63;;
41677;SDS011;27364;49.026;8.712;2022-10-31T08:44:06;11.43;;;6.78;;
41677;SDS011;27364;49.026;8.712;2022-10-31T08:46:32;10.43;;;6.80;;
41677;SDS011;27364;49.026;8.712;2022-10-31T08:48:57;11.05;;;6.72;;
41677;SDS011;27364;49.026;8.712;2022-10-31T08:51:24;10.50;;;6.78;;
41677;SDS011;27364;49.026;8.712;2022-10-31T08:53:51;10.10;;;6.25;;
41677;SDS011;27364;49.026;8.712;2022-10-31T08:56:19;13.35;;;7.20;;
41677;SDS011;27364;49.026;8.712;2022-10-31T08:58:46;9.23;;;6.60;;
41677;SDS011;27364;49.026;8.712;2022-10-31T09:01:12;9.20;;;6.32;;
41677;SDS011;27364;49.026;8.712;2022-10-31T09:03:39;10.20;;;6.50;;
41677;SDS011;27364;49.026;8.712;2022-10-31T09:06:06;10.88;;;6.25;;
41677;SDS011;27364;49.026;8.712;2022-10-31T09:08:34;11.25;;;7.20;;
41677;SDS011;27364;49.026;8.712;2022-10-31T09:11:03;10.55;;;6.68;;
41677;SDS011;27364;49.026;8.712;2022-10-31T09:13:29;11.02;;;6.85;;
41677;SDS011;27364;49.026;8.712;2022-10-31T09:15:56;12.63;;;6.90;;
41677;SDS011;27364;49.026;8.712;2022-10-31T09:20:57;10.70;;;6.90;;
41677;SDS011;27364;49.026;8.712;2022-10-31T09:23:23;9.50;;;5.93;;
41677;SDS011;27364;49.026;8.712;2022-10-31T09:25:49;11.60;;;6.20;;
41677;SDS011;27364;49.026;8.712;2022-10-31T09:30:46;10.50;;;6.53;;
41677;SDS011;27364;49.026;8.712;2022-10-31T09:33:14;12.93;;;6.68;;
41677;SDS011;27364;49.026;8.712;2022-10-31T09:35:40;16.23;;;7.65;;
41677;SDS011;27364;49.026;8.712;2022-10-31T09:38:07;14.63;;;7.00;;
41677;SDS011;27364;49.026;8.712;2022-10-31T09:40:38;13.45;;;6.65;;
41677;SDS011;27364;49.026;8.712;2022-10-31T09:51:12;14.98;;;6.68;;
41677;SDS011;27364;49.026;8.712;2022-10-31T09:56:59;9.23;;;5.65;;
41677;SDS011;27364;49.026;8.712;2022-10-31T09:59:28;10.35;;;5.72;;
41677;SDS011;27364;49.026;8.712;2022-10-31T10:02:00;10.15;;;5.68;;
41677;SDS011;27364;49.026;8.712;2022-10-31T10:07:19;12.90;;;6.18;;
41677;SDS011;27364;49.026;8.712;2022-10-31T10:10:14;10.82;;;6.32;;
41677;SDS011;27364;49.026;8.712;2022-10-31T10:15:29;19.08;;;7.18;;
41677;SDS011;27364;49.026;8.712;2022-10-31T10:27:03;10.52;;;6.28;;
41677;SDS011;27364;49.026;8.712;2022-10-31T10:32:22;12.07;;;6.07;;
41677;SDS011;27364;49.026;8.712;2022-10-31T10:34:51;11.38;;;5.95;;
41677;SDS011;27364;49.026;8.712;2022-10-31T10:37:39;15.38;;;5.63;;
41677;SDS011;27364;49.026;8.712;2022-10-31T10:40:11;14.38;;;7.20;;
41677;SDS011;27364;49.026;8.712;2022-10-31T10:45:50;12.98;;;5.93;;
41677;SDS011;27364;49.026;8.712;2022-10-31T10:48:44;16.27;;;6.13;;
41677;SDS011;27364;49.026;8.712;2022-10-31T10:51:23;20.40;;;6.35;;
41677;SDS011;27364;49.026;8.712;2022-10-31T10:59:57;18.30;;;6.72;;
41677;SDS011;27364;49.026;8.712;2022-10-31T11:02:27;18.50;;;6.15;;
41677;SDS011;27364;49.026;8.712;2022-10-31T11:04:57;20.33;;;6.22;;
41677;SDS011;27364;49.026;8.712;2022-10-31T11:07:36;18.40;;;6.70;;
41677;SDS011;27364;49.026;8.712;2022-10-31T11:10:04;18.60;;;6.28;;
41677;SDS011;27364;49.026;8.712;2022-10-31T11:12:37;13.32;;;6.72;;
41677;SDS011;27364;49.026;8.712;2022-10-31T11:15:15;8.63;;;5.78;;
41677;SDS011;27364;49.026;8.712;2022-10-31T11:17:46;9.82;;;5.80;;
41677;SDS011;27364;49.026;8.712;2022-10-31T11:22:40;12.88;;;5.57;;
41677;SDS011;27364;49.026;8.712;2022-10-31T11:27:46;9.07;;;5.47;;
41677;SDS011;27364;49.026;8.712;2022-10-31T11:30:13;8.02;;;5.70;;
41677;SDS011;27364;49.026;8.712;2022-10-31T11:32:43;12.00;;;6.43;;
41677;SDS011;27364;49.026;8.712;2022-10-31T11:35:16;9.20;;;5.93;;
41677;SDS011;27364;49.026;8.712;2022-10-31T11:37:44;9.48;;;5.60;;
41677;SDS011;27364;49.026;8.712;2022-10-31T11:40:15;13.00;;;6.43;;
41677;SDS011;27364;49.026;8.712;2022-10-31T11:42:50;12.68;;;5.63;;
41677;SDS011;27364;49.026;8.712;2022-10-31T11:45:19;8.93;;;5.60;;
41677;SDS011;27364;49.026;8.712;2022-10-31T11:47:54;8.25;;;5.65;;
41677;SDS011;27364;49.026;8.712;2022-10-31T11:50:22;9.95;;;5.72;;
41677;SDS011;27364;49.026;8.712;2022-10-31T11:52:52;14.15;;;6.45;;
41677;SDS011;27364;49.026;8.712;2022-10-31T11:55:59;10.00;;;6.28;;
41677;SDS011;27364;49.026;8.712;2022-10-31T11:58:54;10.45;;;6.10;;
41677;SDS011;27364;49.026;8.712;2022-10-31T12:01:04;11.70;;;5.70;;
41677;SDS011;27364;49.026;8.712;2022-10-31T12:03:33;10.63;;;6.20;;
41677;SDS011;27364;49.026;8.712;2022-10-31T12:06:12;11.07;;;6.60;;
41677;SDS011;27364;49.026;8.712;2022-10-31T12:08:53;10.70;;;6.25;;
41677;SDS011;27364;49.026;8.712;2022-10-31T12:16:42;11.88;;;6.50;;
41677;SDS011;27364;49.026;8.712;2022-10-31T12:30:23;12.10;;;6.50;;
41677;SDS011;27364;49.026;8.712;2022-10-31T12:41:20;9.23;;;5.53;;
41677;SDS011;27364;49.026;8.712;2022-10-31T12:49:27;11.15;;;6.13;;
41677;SDS011;27364;49.026;8.712;2022-10-31T12:57:53;10.90;;;6.07;;
41677;SDS011;27364;49.026;8.712;2022-10-31T13:00:42;13.85;;;6.22;;
41677;SDS011;27364;49.026;8.712;2022-10-31T13:05:54;11.95;;;6.30;;
41677;SDS011;27364;49.026;8.712;2022-10-31T13:08:26;8.05;;;5.47;;
41677;SDS011;27364;49.026;8.712;2022-10-31T13:11:11;12.52;;;6.20;;
41677;SDS011;27364;49.026;8.712;2022-10-31T13:16:50;12.65;;;6.00;;
41677;SDS011;27364;49.026;8.712;2022-10-31T13:19:18;12.57;;;6.75;;
41677;SDS011;27364;49.026;8.712;2022-10-31T13:24:40;12.45;;;6.60;;
41677;SDS011;27364;49.026;8.712;2022-10-31T13:27:22;13.02;;;6.40;;
41677;SDS011;27364;49.026;8.712;2022-10-31T13:32:40;11.48;;;6.00;;
41677;SDS011;27364;49.026;8.712;2022-10-31T13:35:15;12.52;;;6.10;;
41677;SDS011;27364;49.026;8.712;2022-10-31T13:37:46;13.77;;;6.15;;
41677;SDS011;27364;49.026;8.712;2022-10-31T13:45:47;15.98;;;6.00;;
41677;SDS011;27364;49.026;8.712;2022-10-31T13:50:59;18.33;;;6.35;;
41677;SDS011;27364;49.026;8.712;2022-10-31T13:56:23;14.75;;;5.90;;
41677;SDS011;27364;49.026;8.712;2022-10-31T14:01:26;14.40;;;5.50;;
41677;SDS011;27364;49.026;8.712;2022-10-31T14:06:22;11.95;;;5.68;;
41677;SDS011;27364;49.026;8.712;2022-10-31T14:08:59;17.42;;;6.13;;
41677;SDS011;27364;49.026;8.712;2022-10-31T14:11:26;10.93;;;5.43;;
41677;SDS011;27364;49.026;8.712;2022-10-31T14:13:54;11.85;;;5.22;;
41677;SDS011;27364;49.026;8.712;2022-10-31T14:16:28;11.70;;;5.75;;
41677;SDS011;27364;49.026;8.712;2022-10-31T14:19:06;11.73;;;5.80;;
41677;SDS011;27364;49.026;8.712;2022-10-31T14:21:42;13.50;;;5.65;;
41677;SDS011;27364;49.026;8.712;2022-10-31T14:24:15;18.67;;;6.55;;
41677;SDS011;27364;49.026;8.712;2022-10-31T14:26:51;12.50;;;5.65;;
41677;SDS011;27364;49.026;8.712;2022-10-31T14:51:36;17.05;;;9.05;;
41677;SDS011;27364;49.026;8.712;2022-10-31T14:54:06;15.88;;;9.68;;
41677;SDS011;27364;49.026;8.712;2022-10-31T14:56:37;16.60;;;9.60;;
41677;SDS011;27364;49.026;8.712;2022-10-31T14:59:08;15.57;;;10.15;;
41677;SDS011;27364;49.026;8.712;2022-10-31T15:01:38;15.70;;;9.73;;
41677;SDS011;27364;49.026;8.712;2022-10-31T15:07:20;14.57;;;9.95;;
41677;SDS011;27364;49.026;8.712;2022-10-31T15:09:31;18.42;;;10.40;;
41677;SDS011;27364;49.026;8.712;2022-10-31T15:12:14;18.88;;;12.38;;
41677;SDS011;27364;49.026;8.712;2022-10-31T15:14:57;15.80;;;10.25;;
41677;SDS011;27364;49.026;8.712;2022-10-31T15:17:35;17.60;;;11.95;;
41677;SDS011;27364;49.026;8.712;2022-10-31T15:20:07;18.17;;;11.88;;
41677;SDS011;27364;49.026;8.712;2022-10-31T15:22:35;15.48;;;10.77;;
41677;SDS011;27364;49.026;8.712;2022-10-31T15:25:01;18.33;;;11.30;;
41677;SDS011;27364;49.026;8.712;2022-10-31T15:27:27;14.93;;;9.45;;
41677;SDS011;27364;49.026;8.712;2022-10-31T15:29:55;13.43;;;8.77;;
41677;SDS011;27364;49.026;8.712;2022-10-31T15:32:22;11.80;;;8.20;;
41677;SDS011;27364;49.026;8.712;2022-10-31T15:34:52;11.77;;;8.27;;
41677;SDS011;27364;49.026;8.712;2022-10-31T15:37:19;14.52;;;8.60;;
41677;SDS011;27364;49.026;8.712;2022-10-31T15:39:47;18.45;;;9.77;;
41677;SDS011;27364;49.026;8.712;2022-10-31T15:42:21;15.45;;;9.63;;
41677;SDS011;27364;49.026;8.712;2022-10-31T15:47:44;14.32;;;9.57;;
41677;SDS011;27364;49.026;8.712;2022-10-31T15:52:57;16.75;;;9.88;;
41677;SDS011;27364;49.026;8.712;2022-10-31T15:55:25;12.23;;;9.40;;
41677;SDS011;27364;49.026;8.712;2022-10-31T15:57:58;15.05;;;10.15;;
41677;SDS011;27364;49.026;8.712;2022-10-31T16:00:31;13.82;;;10.07;;
41677;SDS011;27364;49.026;8.712;2022-10-31T16:05:43;16.25;;;10.07;;
41677;SDS011;27364;49.026;8.712;2022-10-31T16:11:37;20.88;;;10.57;;
41677;SDS011;27364;49.026;8.712;2022-10-31T16:13:53;17.25;;;11.07;;
41677;SDS011;27364;49.026;8.712;2022-10-31T16:16:22;22.42;;;12.00;;
41677;SDS011;27364;49.026;8.712;2022-10-31T16:18:48;17.55;;;11.13;;
41677;SDS011;27364;49.026;8.712;2022-10-31T16:23:48;23.00;;;11.65;;
41677;SDS011;27364;49.026;8.712;2022-10-31T16:26:18;21.27;;;11.70;;
41677;SDS011;27364;49.026;8.712;2022-10-31T16:28:51;18.80;;;11.45;;
41677;SDS011;27364;49.026;8.712;2022-10-31T16:31:30;16.58;;;11.02;;
41677;SDS011;27364;49.026;8.712;2022-10-31T16:34:10;18.55;;;11.00;;
41677;SDS011;27364;49.026;8.712;2022-10-31T16:36:41;17.98;;;10.63;;
41677;SDS011;27364;49.026;8.712;2022-10-31T16:39:08;20.05;;;11.40;;
41677;SDS011;27364;49.026;8.712;2022-10-31T16:41:37;17.75;;;10.85;;
41677;SDS011;27364;49.026;8.712;2022-10-31T16:44:06;15.85;;;11.13;;
41677;SDS011;27364;49.026;8.712;2022-10-31T16:46:40;17.55;;;10.77;;
41677;SDS011;27364;49.026;8.712;2022-10-31T16:49:08;19.92;;;10.23;;
41677;SDS011;27364;49.026;8.712;2022-10-31T16:53:59;17.98;;;9.73;;
41677;SDS011;27364;49.026;8.712;2022-10-31T16:56:30;18.40;;;10.00;;
41677;SDS011;27364;49.026;8.712;2022-10-31T16:58:58;18.67;;;10.20;;
41677;SDS011;27364;49.026;8.712;2022-10-31T17:01:26;14.70;;;9.70;;
41677;SDS011;27364;49.026;8.712;2022-10-31T17:03:52;15.32;;;9.20;;
41677;SDS011;27364;49.026;8.712;2022-10-31T17:06:18;15.95;;;9.57;;
41677;SDS011;27364;49.026;8.712;2022-10-31T17:08:43;19.17;;;10.18;;
41677;SDS011;27364;49.026;8.712;2022-10-31T17:11:13;16.85;;;10.93;;
41677;SDS011;27364;49.026;8.712;2022-10-31T17:13:41;25.73;;;15.32;;
41677;SDS011;27364;49.026;8.712;2022-10-31T17:16:07;28.63;;;15.55;;
41677;SDS011;27364;49.026;8.712;2022-10-31T17:18:32;23.23;;;12.98;;
41677;SDS011;27364;49.026;8.712;2022-10-31T17:20:59;17.98;;;11.90;;
41677;SDS011;27364;49.026;8.712;2022-10-31T17:23:26;17.85;;;11.02;;
41677;SDS011;27364;49.026;8.712;2022-10-31T17:25:53;18.75;;;11.60;;
41677;SDS011;27364;49.026;8.712;2022-10-31T17:28:20;19.00;;;10.63;;
41677;SDS011;27364;49.026;8.712;2022-10-31T17:30:45;24.30;;;10.70;;
41677;SDS011;27364;49.026;8.712;2022-10-31T17:33:12;16.85;;;10.80;;
41677;SDS011;27364;49.026;8.712;2022-10-31T17:35:39;16.90;;;11.15;;
41677;SDS011;27364;49.026;8.712;2022-10-31T17:38:05;18.90;;;11.60;;
41677;SDS011;27364;49.026;8.712;2022-10-31T17:40:31;18.20;;;11.02;;
41677;SDS011;27364;49.026;8.712;2022-10-31T17:42:57;15.10;;;10.52;;
41677;SDS011;27364;49.026;8.712;2022-10-31T17:45:25;20.02;;;11.13;;
41677;SDS011;27364;49.026;8.712;2022-10-31T17:47:51;15.93;;;11.05;;
41677;SDS011;27364;49.026;8.712;2022-10-31T17:50:21;18.77;;;12.35;;
41677;SDS011;27364;49.026;8.712;2022-10-31T17:52:48;21.63;;;11.95;;
41677;SDS011;27364;49.026;8.712;2022-10-31T17:55:14;21.58;;;11.73;;
41677;SDS011;27364;49.026;8.712;2022-10-31T17:57:41;16.95;;;11.73;;
41677;SDS011;27364;49.026;8.712;2022-10-31T18:00:09;22.33;;;11.85;;
41677;SDS011;27364;49.026;8.712;2022-10-31T18:02:37;20.85;;;12.25;;